• Join FlightAware (Why Join?)
  • Login
  • US Flag 
02:52PM EST


 

Airport Tracker/Info


-or-


 

Live Flight TrackerFlight Track Log ✈ N884FT ✈ 26-Oct-2013 ✈ KPIE - KMLB

Flight Track Log - Related Links

Times and Time Zones

All times are in EDT time to prevent confusion due to time zone crossing. See the N884FT flight status page for this flight to view local times or setup timezone preferences in your user account.

Time Position Orientation Groundspeed Altitude Reporting Facility
EDT Latitude Longitude Course Direction KTS MPH feet Rate Location/Type
04:23PM 27.9667 -82.7000 82° East 100 115 1,900  Level Tampa TRACON
04:24PM 28.0000 -82.7000 360° North 102 117 2,700 600 Climbing Tampa TRACON
04:25PM 27.9833 -82.6833 139° Southeast 115 132 3,100 120 Climbing Tampa TRACON
04:26PM 27.9667 -82.6333 111° Southeast 127 146 3,000 120 Descending Tampa TRACON
04:27PM 27.9314 -82.4135 81° East  Level FlightAware Approximate
04:27PM 27.9667 -82.6000 90° East 142 163 3,400  Level Tampa TRACON
04:28PM 27.9373 -82.3685 82° East  Level FlightAware Approximate
04:28PM 27.9667 -82.5500 90° East 119 137 4,100  Level Tampa TRACON
04:29PM 27.9667 -82.5167 90° East 149 171 4,100 -60 Level Tampa TRACON
04:30PM 27.9667 -82.4667 90° East 153 176 4,000 -60 Descending Tampa TRACON
04:31PM 27.9667 -82.4167 90° East 147 169 4,000 120 Level Tampa TRACON
04:32PM 27.9667 -82.3667 90° East 148 170 4,300 540 Climbing Tampa TRACON
04:33PM 27.9500 -82.3333 120° Southeast 125 144 5,200 840 Climbing Tampa TRACON
04:34PM 27.9500 -82.3000 90° East 126 145 6,000 780 Climbing Tampa TRACON
04:35PM 27.9500 -82.2500 90° East 127 146 6,800 540 Climbing Tampa TRACON
04:36PM 27.9667 -82.2167 60° Northeast 151 174 7,100 120 Climbing Tampa TRACON
04:37PM 27.9667 -82.1667 90° East 161 185 7,100  Level Tampa TRACON
04:38PM 27.9833 -82.1167 69° East 165 190 7,100  Level Tampa TRACON
04:39PM 27.9833 -82.0667 90° East 165 190 7,100 -60 Level Tampa TRACON
04:41PM 28.0000 -81.9500 81° East 166 191 7,000  Descending Orlando TRACON
04:42PM 28.0000 -81.9000 90° East 165 190 7,100  Climbing Orlando TRACON
04:43PM 28.0000 -81.8500 90° East 165 190 7,100  Level Orlando TRACON
04:44PM 28.0167 -81.8000 69° East 163 188 7,100  Level Orlando TRACON
04:45PM 28.0167 -81.7500 90° East 165 190 7,100 -60 Level Orlando TRACON
04:46PM 28.0333 -81.7000 69° East 165 190 7,000  Descending Orlando TRACON
04:47PM 28.0333 -81.6500 90° East 166 191 7,100  Climbing Orlando TRACON
04:48PM 28.0500 -81.6000 69° East 166 191 7,100  Level Orlando TRACON
04:49PM 28.0500 -81.5500 90° East 166 191 7,100  Level Orlando TRACON
04:50PM 28.0500 -81.4833 90° East 165 190 7,100 -240 Level Orlando TRACON
04:51PM 28.0667 -81.4333 69° East 170 196 6,700 -420 Descending Orlando TRACON
04:52PM 28.0833 -81.3833 69° East 181 208 6,300 -480 Descending Orlando TRACON
04:53PM 28.0833 -81.3333 90° East 179 206 5,800 -480 Descending Orlando TRACON
04:54PM 28.0833 -81.2667 90° East 177 204 5,400 -420 Descending Orlando TRACON
04:55PM 28.0833 -81.2167 90° East 175 201 5,000 -300 Descending Orlando TRACON
04:56PM 28.1000 -81.1667 69° East 163 188 4,900 -360 Descending Orlando TRACON
04:57PM 28.1000 -81.1167 90° East 167 192 4,400 -540 Descending Orlando TRACON
04:58PM 28.1000 -81.0667 90° East 157 181 3,900 -540 Descending Orlando TRACON
04:59PM 28.0833 -81.0167 111° Southeast 161 185 3,400 -480 Descending Orlando TRACON
05:00PM 28.0833 -80.9667 90° East 161 185 3,000 -480 Descending Orlando TRACON
05:01PM 28.0833 -80.9167 90° East 167 192 2,500 -600 Descending Orlando TRACON
05:02PM 28.1000 -80.8833 60° Northeast 150 173 1,900 -480 Descending Orlando TRACON
05:03PM 28.1000 -80.8333 90° East 121 139 1,600 -180 Descending Orlando TRACON
05:04PM 28.1000 -80.8000 90° East 101 116 1,600  Level Orlando TRACON
05:05PM 28.1000 -80.7667 90° East 109 125 1,700 -120 Climbing Orlando TRACON
05:06PM 28.1000 -80.7333 90° East 97 112 1,400 -480 Descending Orlando TRACON
05:07PM 28.1000 -80.7000 90° East 103 119 800 -480 Descending Orlando TRACON
05:08PM 28.1000 -80.6833 90° East 91 105 400 -420 Descending Orlando TRACON
05:10PM 28.1028 -80.6453 79° East  Level Estimated
05:17PM 28.1028 -80.6453 79° East  Level Estimated